Time;durP1;ratioP1;P1;durP2;ratioP2;P2;SDS_P1;SDS_P2;PMS_P1;PMS_P2;Temp;Humidity;BMP_temperature;BMP_pressure;BME280_temperature;BME280_humidity;BME280_pressure;Samples;Min_cycle;Max_cycle;Signal;HPM_P1;HPM_P2
2022/06/25 00:01:57;;;;;;;10.48;4.75;;;;;;;13.85;88.22;99129.72;1739641;82;20952;-71
2022/06/25 00:07:09;;;;;;;6.08;3.70;;;;;;;13.76;88.44;99131.13;1739745;82;21000;-71
2022/06/25 00:09:37;;;;;;;4.50;4.03;;;;;;;13.69;88.73;99125.89;1739778;82;21022;-71
2022/06/25 00:14:49;;;;;;;4.47;4.05;;;;;;;13.50;89.47;99122.22;1739817;82;20953;-71
2022/06/25 00:17:15;;;;;;;7.95;4.12;;;;;;;13.39;89.90;99124.59;1739820;82;20964;-70
2022/06/25 00:19:42;;;;;;;4.45;3.92;;;;;;;13.32;90.36;99114.16;1740057;82;21010;-70
2022/06/25 00:22:08;;;;;;;6.10;4.12;;;;;;;13.27;90.95;99122.25;1739784;82;21519;-70
2022/06/25 00:24:35;;;;;;;5.00;3.77;;;;;;;13.25;91.43;99120.19;1740079;82;21087;-71
2022/06/25 00:27:01;;;;;;;4.60;4.20;;;;;;;13.23;91.89;99115.98;1739752;82;21036;-71
2022/06/25 00:29:28;;;;;;;5.53;3.15;;;;;;;13.23;92.17;99118.13;1739724;82;21480;-71
2022/06/25 00:31:54;;;;;;;4.90;3.87;;;;;;;13.25;92.29;99118.04;1740075;82;20984;-71
2022/06/25 00:34:21;;;;;;;3.80;3.50;;;;;;;13.24;92.13;99119.81;1739811;82;21048;-71
2022/06/25 00:36:48;;;;;;;4.87;3.72;;;;;;;13.22;91.87;99111.68;1739738;82;21966;-71
2022/06/25 00:39:15;;;;;;;7.95;4.05;;;;;;;13.20;91.88;99115.69;1739934;82;20996;-71
2022/06/25 00:41:42;;;;;;;3.77;3.42;;;;;;;13.21;91.73;99111.30;1739820;82;21429;-70
2022/06/25 00:44:09;;;;;;;7.00;3.55;;;;;;;13.20;91.38;99114.38;1740007;82;20964;-70
2022/06/25 00:46:35;;;;;;;3.87;3.40;;;;;;;13.19;91.56;99114.50;1739808;82;20957;-71
2022/06/25 00:49:03;;;;;;;4.25;3.70;;;;;;;13.17;92.03;99118.50;1739747;82;21016;-72
2022/06/25 00:51:32;;;;;;;4.25;3.85;;;;;;;13.15;92.38;99111.65;1739688;82;20952;-72
2022/06/25 00:54:04;;;;;;;5.60;3.67;;;;;;;13.14;92.27;99119.95;1739739;82;21020;-71
2022/06/25 00:56:33;;;;;;;3.90;3.60;;;;;;;13.13;92.43;99118.72;1740007;82;21568;-71
2022/06/25 00:59:04;;;;;;;7.30;3.72;;;;;;;13.12;92.67;99119.19;1745664;82;21093;-71
2022/06/25 01:01:34;;;;;;;8.00;4.40;;;;;;;13.11;92.96;99121.42;1719486;82;21562;-71
2022/06/25 01:04:01;;;;;;;5.15;4.00;;;;;;;13.09;93.31;99122.81;1739659;82;21075;-71
2022/06/25 01:06:32;;;;;;;7.67;4.25;;;;;;;13.05;93.90;99123.91;1739797;82;21118;-71
2022/06/25 01:08:57;;;;;;;6.40;3.85;;;;;;;13.02;94.19;99125.84;1738248;82;20948;-71
2022/06/25 01:11:25;;;;;;;10.28;4.40;;;;;;;13.00;94.33;99129.00;1739906;82;21008;-72
2022/06/25 01:13:52;;;;;;;7.33;4.17;;;;;;;12.99;94.65;99124.74;1739721;82;21129;-71
2022/06/25 01:16:21;;;;;;;8.65;4.40;;;;;;;12.95;95.01;99123.23;1739763;82;20940;-71
2022/06/25 01:18:49;;;;;;;6.28;4.20;;;;;;;12.91;95.38;99121.25;1739684;82;20996;-71
2022/06/25 01:21:15;;;;;;;6.33;3.70;;;;;;;12.88;95.61;99124.48;1739796;82;21023;-71
2022/06/25 01:23:42;;;;;;;7.75;4.17;;;;;;;12.85;95.88;99122.89;1739791;82;21115;-71
2022/06/25 01:26:09;;;;;;;6.90;4.05;;;;;;;12.86;96.17;99124.58;1740024;82;21056;-71
2022/06/25 01:28:36;;;;;;;6.25;4.12;;;;;;;12.86;96.23;99127.18;1739885;82;20961;-71
2022/06/25 01:31:02;;;;;;;5.17;4.40;;;;;;;12.86;96.43;99129.80;1739707;82;21508;-71
2022/06/25 01:33:30;;;;;;;5.03;3.83;;;;;;;12.86;96.58;99125.88;1739682;82;21508;-71
2022/06/25 01:35:57;;;;;;;4.85;4.22;;;;;;;12.88;96.68;99125.33;1740001;82;20936;-71
2022/06/25 01:38:26;;;;;;;4.55;3.75;;;;;;;12.87;96.63;99124.11;1739636;82;21168;-71
2022/06/25 01:40:53;;;;;;;6.85;4.55;;;;;;;12.87;96.64;99129.33;1739920;82;21001;-71
2022/06/25 01:43:19;;;;;;;4.80;3.80;;;;;;;12.87;96.61;99130.17;1739723;82;20952;-71
2022/06/25 01:45:46;;;;;;;4.78;3.87;;;;;;;12.90;96.59;99128.70;1739945;82;21460;-71
2022/06/25 01:48:13;;;;;;;3.98;3.42;;;;;;;12.92;96.20;99131.23;1739684;82;21055;-71
2022/06/25 01:50:39;;;;;;;4.70;3.90;;;;;;;12.93;96.03;99132.45;1739774;82;21122;-71
2022/06/25 01:53:06;;;;;;;7.08;3.50;;;;;;;12.92;95.87;99126.84;1739677;82;21448;-71
2022/06/25 01:55:33;;;;;;;5.17;3.92;;;;;;;12.92;95.61;99128.62;1739722;82;21012;-71
2022/06/25 01:58:00;;;;;;;5.30;3.65;;;;;;;12.92;95.68;99132.06;1739676;82;20964;-71
2022/06/25 02:00:28;;;;;;;5.85;4.55;;;;;;;12.93;95.68;99131.61;1739709;82;20965;-71
2022/06/25 02:02:58;;;;;;;6.50;3.90;;;;;;;12.95;95.77;99128.45;1739615;82;21157;-71
2022/06/25 02:08:13;;;;;;;5.30;3.67;;;;;;;13.02;95.60;99132.37;1739733;82;21539;-72
2022/06/25 02:10:41;;;;;;;6.67;3.58;;;;;;;13.04;95.55;99131.36;1739976;82;21039;-71
2022/06/25 02:13:09;;;;;;;6.37;3.80;;;;;;;13.10;95.52;99138.02;1739806;82;21052;-72
2022/06/25 02:15:38;;;;;;;6.40;4.17;;;;;;;13.18;95.33;99138.92;1739705;82;21149;-72
2022/06/25 02:18:04;;;;;;;6.40;3.90;;;;;;;13.25;94.92;99135.02;1739679;82;21491;-72
2022/06/25 02:20:31;;;;;;;4.55;3.95;;;;;;;13.29;94.51;99141.28;1739975;82;21031;-72
2022/06/25 02:22:57;;;;;;;6.90;3.83;;;;;;;13.32;94.21;99142.88;1739687;82;20996;-69
2022/06/25 02:25:25;;;;;;;5.17;3.35;;;;;;;13.33;94.15;99148.48;1739661;82;21000;-70
2022/06/25 02:27:51;;;;;;;7.00;3.95;;;;;;;13.36;94.08;99154.84;1739647;82;21596;-69
2022/06/25 02:30:18;;;;;;;7.33;3.92;;;;;;;13.39;94.19;99152.03;1739827;82;21464;-69
2022/06/25 02:32:45;;;;;;;5.60;3.90;;;;;;;13.42;93.87;99152.70;1739664;82;21027;-69
2022/06/25 02:35:11;;;;;;;9.73;4.15;;;;;;;13.47;93.51;99152.44;1739698;82;21031;-70
2022/06/25 02:37:38;;;;;;;4.58;3.80;;;;;;;13.52;92.85;99153.02;1739668;82;20964;-69
2022/06/25 02:40:07;;;;;;;3.77;3.47;;;;;;;13.55;92.07;99152.00;1739653;82;21794;-69
2022/06/25 02:42:37;;;;;;;4.87;4.17;;;;;;;13.59;91.34;99153.51;1739896;82;20960;-69
2022/06/25 02:45:05;;;;;;;4.35;3.75;;;;;;;13.61;91.02;99155.54;1719256;82;21016;-71
2022/06/25 02:47:32;;;;;;;6.72;4.35;;;;;;;13.65;90.86;99150.52;1739960;82;21003;-71
2022/06/25 02:50:07;;;;;;;7.40;4.40;;;;;;;13.71;90.50;99152.77;1739544;82;20953;-70
2022/06/25 02:52:35;;;;;;;4.92;3.75;;;;;;;13.76;90.28;99141.59;1739995;82;21738;-70
2022/06/25 02:55:01;;;;;;;3.83;2.98;;;;;;;13.83;90.15;99140.27;1739586;82;21079;-71
2022/06/25 03:00:17;;;;;;;7.28;4.08;;;;;;;13.95;89.80;99133.02;1739683;82;20961;-71
2022/06/25 03:02:44;;;;;;;5.40;4.00;;;;;;;14.05;89.61;99137.20;1719410;82;21063;-71
2022/06/25 03:05:11;;;;;;;5.20;3.80;;;;;;;14.11;89.32;99135.06;1739614;82;21793;-70
2022/06/25 03:07:39;;;;;;;6.62;3.72;;;;;;;14.22;89.06;99140.93;1739853;82;21476;-71
2022/06/25 03:10:07;;;;;;;5.45;4.30;;;;;;;14.34;88.74;99146.73;1739714;82;20961;-71
2022/06/25 03:12:33;;;;;;;7.60;4.12;;;;;;;14.50;88.38;99142.72;1739956;82;21040;-71
2022/06/25 03:15:06;;;;;;;10.80;4.58;;;;;;;14.76;87.93;99139.31;1736549;82;21000;-71
2022/06/25 03:17:33;;;;;;;10.60;4.40;;;;;;;15.73;86.09;99152.17;1739630;82;21891;-71
2022/06/25 03:20:18;;;;;;;8.38;4.60;;;;;;;15.73;86.09;99152.17;1739687;82;20961;-71
2022/06/25 03:22:47;;;;;;;8.30;4.03;;;;;;;17.23;81.30;99144.56;1739340;82;21489;-72
2022/06/25 03:25:13;;;;;;;7.53;4.10;;;;;;;17.23;81.30;99144.56;1719214;82;20988;-73
2022/06/25 03:27:40;;;;;;;6.33;4.25;;;;;;;18.07;77.88;99152.23;1740041;82;21009;-73
2022/06/25 03:30:09;;;;;;;6.65;4.35;;;;;;;18.87;74.06;99155.55;1739163;82;21151;-73
2022/06/25 03:32:37;;;;;;;6.15;4.42;;;;;;;19.64;71.17;99150.60;1719531;82;20969;-73
2022/06/25 03:35:12;;;;;;;5.25;3.83;;;;;;;20.32;67.97;99153.14;1684378;82;21008;-74
2022/06/25 03:37:40;;;;;;;5.97;4.53;;;;;;;20.96;65.24;99152.32;1738666;82;21008;-73
2022/06/25 03:40:09;;;;;;;6.65;3.92;;;;;;;21.52;62.94;99155.16;1739741;82;21090;-73
2022/06/25 03:42:36;;;;;;;4.62;3.83;;;;;;;22.09;60.56;99156.54;1740029;82;21187;-74
2022/06/25 03:45:05;;;;;;;6.30;4.42;;;;;;;22.59;58.74;99149.06;1739485;82;21051;-74
2022/06/25 03:47:34;;;;;;;6.22;4.28;;;;;;;23.09;56.88;99156.13;1739859;82;21489;-74
2022/06/25 03:50:01;;;;;;;6.83;3.87;;;;;;;23.53;55.58;99158.89;1740001;82;21083;-74
2022/06/25 03:52:29;;;;;;;8.30;4.08;;;;;;;23.96;54.05;99160.72;1739792;82;20957;-74
2022/06/25 03:54:55;;;;;;;7.62;4.30;;;;;;;24.37;52.80;99157.33;1740115;82;21153;-75
2022/06/25 03:57:22;;;;;;;8.48;3.58;;;;;;;24.76;50.79;99155.49;1739690;82;21508;-75
2022/06/25 03:59:56;;;;;;;8.18;4.80;;;;;;;25.09;49.53;99160.92;1716559;82;21420;-75
2022/06/25 04:02:25;;;;;;;5.35;4.20;;;;;;;25.40;48.16;99166.77;1739812;82;21013;-75
2022/06/25 04:05:03;;;;;;;4.62;4.20;;;;;;;25.74;47.27;99175.16;1630461;88;21034;-74
2022/06/25 04:07:31;;;;;;;5.05;4.00;;;;;;;26.01;46.24;99166.77;1739754;82;21578;-74
2022/06/25 04:09:57;;;;;;;4.62;3.90;;;;;;;26.22;45.59;99160.91;1740522;82;21039;-74
2022/06/25 04:12:25;;;;;;;9.38;4.30;;;;;;;26.31;44.97;99161.26;1739841;82;20992;-75
2022/06/25 04:14:52;;;;;;;5.70;4.22;;;;;;;26.34;44.75;99165.42;1739757;82;21008;-74
2022/06/25 04:17:18;;;;;;;6.33;3.95;;;;;;;26.40;44.71;99162.05;1739828;82;21424;-75
2022/06/25 04:19:45;;;;;;;8.55;3.72;;;;;;;26.54;45.04;99163.18;1740025;82;21111;-74
2022/06/25 04:22:14;;;;;;;4.92;3.62;;;;;;;26.72;43.91;99159.77;1739685;82;21504;-74
2022/06/25 04:24:42;;;;;;;5.72;4.15;;;;;;;26.77;43.33;99161.41;1739777;82;20976;-73
2022/06/25 04:29:03;;;;;;;4.28;3.67;;;;;;;26.77;43.38;99162.75;1740042;82;21433;-74
2022/06/25 04:29:38;;;;;;;4.92;3.42;;;;;;;26.86;42.72;99161.69;1737029;82;20948;-74
2022/06/25 04:32:15;;;;;;;6.67;4.08;;;;;;;26.87;42.42;99169.19;1739609;82;21083;-74
2022/06/25 04:34:52;;;;;;;5.22;3.67;;;;;;;26.85;42.48;99165.36;1736365;82;21146;-76
2022/06/25 04:37:19;;;;;;;6.92;3.50;;;;;;;26.90;42.37;99164.34;1739933;82;20968;-76
2022/06/25 04:39:46;;;;;;;4.45;3.42;;;;;;;27.01;41.64;99177.30;1739896;82;21001;-75
2022/06/25 04:42:13;;;;;;;4.67;3.20;;;;;;;27.02;41.28;99170.96;1739747;82;21040;-76
2022/06/25 04:44:39;;;;;;;9.23;3.35;;;;;;;27.06;41.55;99176.78;1739747;82;21717;-74
2022/06/25 04:47:09;;;;;;;4.62;3.20;;;;;;;27.09;41.53;99177.27;1739642;82;20956;-74
2022/06/25 04:49:40;;;;;;;5.12;3.27;;;;;;;27.15;40.75;99182.42;1739288;82;21007;-75
2022/06/25 04:52:07;;;;;;;4.62;3.08;;;;;;;26.91;40.94;99182.02;1740070;82;20957;-75
2022/06/25 04:54:34;;;;;;;4.60;3.08;;;;;;;26.76;41.56;99188.59;1739765;82;21008;-75
2022/06/25 04:57:09;;;;;;;4.30;3.55;;;;;;;26.60;41.69;99185.14;1739669;82;21363;-74
2022/06/25 04:59:37;;;;;;;3.67;2.67;;;;;;;26.55;42.29;99183.02;1739086;82;21050;-74
2022/06/25 05:02:08;;;;;;;6.17;3.75;;;;;;;26.62;42.31;99193.80;1739830;82;20960;-75
2022/06/25 05:04:40;;;;;;;5.05;3.35;;;;;;;26.66;42.16;99183.95;1739308;82;21001;-75
2022/06/25 05:07:06;;;;;;;3.60;3.25;;;;;;;26.64;41.89;99185.13;1740077;82;20965;-75
2022/06/25 05:09:34;;;;;;;6.42;3.15;;;;;;;26.46;42.33;99196.53;1739739;82;21707;-75
2022/06/25 05:12:00;;;;;;;5.78;3.90;;;;;;;26.30;42.59;99198.25;1739885;82;20965;-74
2022/06/25 05:14:28;;;;;;;6.60;3.75;;;;;;;26.12;43.36;99192.76;1739697;82;20968;-75
2022/06/25 05:16:56;;;;;;;13.43;3.90;;;;;;;26.20;44.04;99190.89;1739986;82;21420;-75
2022/06/25 05:19:23;;;;;;;3.72;3.42;;;;;;;26.54;43.94;99200.52;1739724;82;21056;-75
2022/06/25 05:21:50;;;;;;;3.95;3.55;;;;;;;26.94;43.27;99196.38;1739977;82;21085;-74
2022/06/25 05:24:17;;;;;;;5.03;3.10;;;;;;;27.12;41.57;99202.78;1739701;82;20945;-74
2022/06/25 05:26:43;;;;;;;4.72;3.10;;;;;;;26.97;41.94;99196.03;1739954;82;20980;-74
2022/06/25 05:29:10;;;;;;;7.17;3.08;;;;;;;26.59;42.17;99196.31;1739726;82;21016;-74
2022/06/25 05:31:36;;;;;;;6.33;3.10;;;;;;;26.06;43.32;99196.92;1740119;82;20953;-74
2022/06/25 05:34:03;;;;;;;7.58;3.60;;;;;;;25.34;44.51;99200.73;1739689;82;21508;-75
2022/06/25 05:36:30;;;;;;;9.65;3.52;;;;;;;24.72;46.22;99200.69;1739844;82;20992;-74
2022/06/25 05:38:56;;;;;;;4.83;2.83;;;;;;;24.27;47.54;99202.28;1720616;81;21107;-73
2022/06/25 05:41:23;;;;;;;7.20;3.00;;;;;;;23.94;48.31;99199.88;1738470;82;21065;-76
2022/06/25 05:43:49;;;;;;;3.90;2.70;;;;;;;23.61;49.36;99208.89;1738319;82;21093;-73
2022/06/25 05:46:16;;;;;;;4.35;2.80;;;;;;;23.35;50.19;99196.03;1739374;82;21104;-74
2022/06/25 05:48:42;;;;;;;5.30;3.05;;;;;;;23.20;51.15;99209.45;1739905;82;21538;-73
2022/06/25 05:51:09;;;;;;;3.95;2.85;;;;;;;23.02;51.23;99211.59;1739571;81;21015;-74
2022/06/25 05:53:36;;;;;;;7.65;3.02;;;;;;;22.84;52.20;99211.21;1739676;81;21011;-72
2022/06/25 05:56:02;;;;;;;4.47;2.90;;;;;;;22.72;52.82;99204.41;1739555;82;21082;-73
2022/06/25 05:58:29;;;;;;;5.80;2.83;;;;;;;22.64;53.13;99209.95;1738520;82;21790;-74
2022/06/25 06:00:56;;;;;;;3.02;2.52;;;;;;;22.59;53.65;99216.17;1738807;82;21006;-74
2022/06/25 06:03:22;;;;;;;5.70;3.12;;;;;;;22.55;54.01;99220.61;1738341;82;20990;-74
2022/06/25 06:05:49;;;;;;;3.92;3.05;;;;;;;22.48;54.12;99224.31;1739779;82;20960;-75
2022/06/25 06:08:15;;;;;;;5.40;3.27;;;;;;;22.47;54.53;99226.63;1739952;82;21050;-74
2022/06/25 06:10:42;;;;;;;4.60;2.87;;;;;;;22.52;54.71;99227.52;1740055;82;21115;-74
2022/06/25 06:13:09;;;;;;;5.17;2.83;;;;;;;22.56;54.62;99226.25;1739702;82;20948;-74
2022/06/25 06:15:36;;;;;;;4.33;3.30;;;;;;;22.58;54.77;99226.42;1740053;81;20987;-74
2022/06/25 06:18:03;;;;;;;3.50;3.08;;;;;;;22.59;54.43;99228.59;1739657;82;21042;-74
2022/06/25 06:20:30;;;;;;;9.03;3.17;;;;;;;22.56;54.97;99236.36;1739946;81;21439;-74
2022/06/25 06:22:57;;;;;;;7.00;3.50;;;;;;;22.62;55.10;99229.63;1739723;81;21227;-75
2022/06/25 06:25:23;;;;;;;6.55;3.50;;;;;;;22.67;54.82;99232.19;1739678;82;20932;-74
2022/06/25 06:27:50;;;;;;;4.87;2.90;;;;;;;22.69;54.82;99234.21;1739750;82;21472;-74
2022/06/25 06:30:16;;;;;;;10.28;3.30;;;;;;;22.69;54.93;99230.72;1746273;81;20954;-74
2022/06/25 06:32:43;;;;;;;5.97;3.52;;;;;;;22.67;55.02;99231.36;1769041;79;20998;-74
2022/06/25 06:35:09;;;;;;;7.12;3.55;;;;;;;22.72;55.20;99229.11;1770183;81;22027;-73
2022/06/25 06:37:36;;;;;;;7.03;3.27;;;;;;;22.85;55.55;99228.30;1770148;80;20975;-73
2022/06/25 06:40:06;;;;;;;3.60;3.30;;;;;;;22.97;55.98;99237.75;1770250;80;21030;-74
2022/06/25 06:42:33;;;;;;;5.67;3.62;;;;;;;23.05;55.50;99234.34;1770192;81;21544;-74
2022/06/25 06:44:59;;;;;;;4.30;3.70;;;;;;;23.16;55.67;99229.33;1770558;81;21419;-74
2022/06/25 06:47:26;;;;;;;3.70;3.40;;;;;;;23.34;55.31;99227.53;1770161;81;21145;-74
2022/06/25 06:49:53;;;;;;;5.70;3.10;;;;;;;23.48;54.44;99232.80;1770085;80;21002;-74
2022/06/25 06:52:19;;;;;;;4.17;3.17;;;;;;;23.52;53.76;99236.86;1770504;80;21565;-73
2022/06/25 06:54:46;;;;;;;3.67;3.05;;;;;;;23.48;53.56;99241.60;1770379;81;20944;-74
2022/06/25 06:57:14;;;;;;;4.53;2.98;;;;;;;23.50;53.86;99242.28;1771837;80;21086;-73
2022/06/25 06:59:41;;;;;;;4.45;2.87;;;;;;;23.54;53.88;99238.38;1771997;81;21214;-73
2022/06/25 07:02:08;;;;;;;2.55;2.30;;;;;;;23.59;54.26;99237.41;1770494;80;20959;-72
2022/06/25 07:04:34;;;;;;;4.33;2.40;;;;;;;23.71;53.16;99253.97;1770098;81;21042;-73
2022/06/25 07:07:01;;;;;;;5.05;2.55;;;;;;;23.70;52.87;99256.28;1770407;81;21007;-73
2022/06/25 07:09:28;;;;;;;4.58;2.60;;;;;;;23.65;52.57;99247.92;1770202;81;20954;-73
2022/06/25 07:11:55;;;;;;;3.50;2.35;;;;;;;23.51;53.19;99255.06;1770132;81;21147;-72
2022/06/25 07:14:21;;;;;;;4.35;2.72;;;;;;;23.43;53.92;99259.79;1770158;81;21042;-73
2022/06/25 07:16:49;;;;;;;4.90;2.80;;;;;;;23.52;53.66;99263.41;1770303;81;20998;-73
2022/06/25 07:19:15;;;;;;;2.58;2.37;;;;;;;23.57;53.93;99259.33;1770277;80;21026;-73
2022/06/25 07:21:41;;;;;;;5.22;2.70;;;;;;;23.67;52.99;99260.56;1770855;81;20951;-73
2022/06/25 07:24:10;;;;;;;3.08;2.08;;;;;;;23.71;53.15;99264.59;1770372;80;21143;-74
2022/06/25 07:26:37;;;;;;;4.20;2.50;;;;;;;23.75;53.42;99268.61;1770268;81;20971;-73
2022/06/25 07:29:04;;;;;;;3.75;2.40;;;;;;;23.79;53.17;99269.12;1770579;81;21494;-73
2022/06/25 07:31:31;;;;;;;4.05;2.42;;;;;;;23.83;53.19;99273.14;1770283;80;21637;-74
2022/06/25 07:33:58;;;;;;;3.33;2.40;;;;;;;23.84;52.45;99275.65;1770688;81;21132;-74
2022/06/25 07:36:24;;;;;;;2.85;2.52;;;;;;;23.83;52.24;99261.19;1770345;81;21112;-75
2022/06/25 07:38:52;;;;;;;4.33;2.30;;;;;;;23.95;52.88;99263.97;1770217;81;20944;-74
2022/06/25 07:41:18;;;;;;;4.72;2.40;;;;;;;24.22;53.21;99258.52;1770340;80;20952;-73
2022/06/25 07:43:45;;;;;;;3.47;2.20;;;;;;;24.45;51.68;99264.19;1770342;81;21057;-73
2022/06/25 07:46:12;;;;;;;2.40;2.20;;;;;;;24.54;51.19;99275.22;1751069;81;21085;-74
2022/06/25 07:48:38;;;;;;;10.32;2.40;;;;;;;24.66;51.08;99263.81;1770841;80;21051;-74
2022/06/25 07:53:50;;;;;;;3.22;2.30;;;;;;;24.93;50.50;99270.27;1770656;81;20998;-75
2022/06/25 07:56:16;;;;;;;2.62;2.25;;;;;;;24.97;50.17;99270.82;1770324;81;20935;-74
2022/06/25 07:58:43;;;;;;;3.75;2.37;;;;;;;24.93;49.80;99267.61;1770611;81;21010;-75
2022/06/25 08:01:10;;;;;;;3.42;2.70;;;;;;;24.87;50.15;99280.21;1770267;81;21276;-74
2022/06/25 08:03:37;;;;;;;3.20;2.40;;;;;;;24.97;50.97;99266.83;1770496;81;20943;-75
2022/06/25 08:06:04;;;;;;;3.35;2.60;;;;;;;25.22;50.51;99267.73;1770319;81;20994;-74
2022/06/25 08:08:31;;;;;;;2.50;2.30;;;;;;;25.45;49.48;99267.96;1770309;81;20998;-75
2022/06/25 08:10:58;;;;;;;3.22;2.17;;;;;;;25.47;48.86;99269.97;1770305;81;21057;-74
2022/06/25 08:13:26;;;;;;;2.52;2.20;;;;;;;25.48;48.71;99266.31;1770269;80;21176;-74
2022/06/25 08:15:53;;;;;;;4.55;2.58;;;;;;;25.49;48.52;99265.31;1770295;80;21023;-75
2022/06/25 08:18:20;;;;;;;4.17;2.55;;;;;;;25.46;48.63;99257.15;1770262;81;20923;-74
2022/06/25 08:20:46;;;;;;;2.77;2.15;;;;;;;25.48;48.52;99261.81;1770250;81;20964;-74
2022/06/25 08:23:13;;;;;;;2.58;2.35;;;;;;;25.40;48.25;99252.47;1770338;81;21007;-74
2022/06/25 08:25:39;;;;;;;4.58;2.35;;;;;;;25.31;49.23;99252.97;1770279;81;21164;-73
2022/06/25 08:28:06;;;;;;;3.87;2.47;;;;;;;25.30;49.33;99264.61;1770227;81;20923;-74
2022/06/25 08:30:33;;;;;;;2.80;2.33;;;;;;;25.26;50.26;99255.77;1770114;81;20998;-73
2022/06/25 08:32:59;;;;;;;3.35;2.20;;;;;;;25.32;50.43;99267.11;1769619;81;20994;-75
2022/06/25 08:35:26;;;;;;;2.87;2.22;;;;;;;25.31;49.76;99259.62;1769377;81;21486;-73
2022/06/25 08:37:53;;;;;;;2.00;1.90;;;;;;;25.24;49.61;99263.91;1770144;80;21105;-74
2022/06/25 08:40:20;;;;;;;3.98;2.58;;;;;;;25.19;50.21;99259.56;1770003;81;20987;-74
2022/06/25 08:42:48;;;;;;;3.65;2.25;;;;;;;25.22;50.17;99257.92;1770337;81;21003;-74
2022/06/25 08:45:17;;;;;;;3.60;2.20;;;;;;;25.27;49.89;99258.77;1770320;81;21583;-74
2022/06/25 08:47:47;;;;;;;2.77;2.20;;;;;;;25.29;49.74;99254.95;1769556;80;21014;-74
2022/06/25 08:50:15;;;;;;;1.98;1.80;;;;;;;25.39;49.46;99257.45;1770099;81;21131;-74
2022/06/25 08:52:46;;;;;;;2.10;1.90;;;;;;;25.41;48.98;99262.13;1770190;80;20990;-74
2022/06/25 08:55:36;;;;;;;2.52;1.85;;;;;;;25.38;48.45;99260.61;1770676;81;21053;-73
2022/06/25 08:58:03;;;;;;;3.22;1.62;;;;;;;25.39;48.42;99262.28;1765202;80;21015;-73
2022/06/25 09:00:33;;;;;;;3.75;1.90;;;;;;;25.35;47.86;99270.78;1770264;81;21444;-74
2022/06/25 09:02:59;;;;;;;2.20;2.00;;;;;;;25.32;49.25;99264.45;1770236;81;21284;-73
2022/06/25 09:05:34;;;;;;;2.33;2.10;;;;;;;25.39;48.78;99261.45;1770419;81;21573;-73
2022/06/25 09:08:03;;;;;;;2.75;1.90;;;;;;;25.46;48.35;99260.31;1770378;81;21002;-73
2022/06/25 09:10:32;;;;;;;4.10;1.82;;;;;;;25.47;48.27;99269.97;1770241;80;21554;-73
2022/06/25 09:13:09;;;;;;;2.60;1.92;;;;;;;25.52;48.71;99265.83;1770295;81;20987;-73
2022/06/25 09:15:40;;;;;;;2.60;2.20;;;;;;;25.61;48.23;99264.83;1770383;81;21870;-75
2022/06/25 09:18:12;;;;;;;2.98;2.10;;;;;;;25.63;47.89;99274.85;1770468;80;21050;-75
2022/06/25 09:21:09;;;;;;;4.20;2.10;;;;;;;25.62;48.13;99259.86;1770406;80;20935;-75
2022/06/25 09:23:58;;;;;;;2.37;2.05;;;;;;;25.73;47.87;99262.23;1770532;81;20964;-75
2022/06/25 09:26:25;;;;;;;3.22;1.82;;;;;;;25.78;47.32;99268.89;1770238;81;20995;-73
2022/06/25 09:28:52;;;;;;;3.62;2.00;;;;;;;25.70;47.48;99268.38;1770546;81;21066;-74
2022/06/25 09:31:36;;;;;;;2.67;2.00;;;;;;;25.70;47.39;99269.71;1770164;80;20943;-72
2022/06/25 09:34:04;;;;;;;3.20;2.40;;;;;;;25.76;47.68;99270.89;1770314;80;21044;-74
2022/06/25 09:36:31;;;;;;;1.85;1.75;;;;;;;25.78;46.48;99271.03;1770166;81;21018;-74
2022/06/25 09:38:57;;;;;;;4.42;1.77;;;;;;;25.80;46.02;99258.38;1770443;81;21116;-74
2022/06/25 09:41:24;;;;;;;2.40;1.70;;;;;;;25.84;45.88;99273.54;1770227;80;21141;-75
2022/06/25 09:43:51;;;;;;;3.10;1.85;;;;;;;25.83;44.56;99252.72;1770425;81;20939;-75
2022/06/25 09:46:19;;;;;;;2.33;2.12;;;;;;;25.78;45.57;99252.91;1770188;81;32612;-75
2022/06/25 09:48:45;;;;;;;4.60;2.77;;;;;;;25.85;46.37;99260.05;1770244;80;20995;-75
2022/06/25 09:51:22;;;;;;;11.50;9.13;;;;;;;26.00;46.48;99263.72;1770182;81;21041;-75
2022/06/25 09:53:54;;;;;;;6.25;2.95;;;;;;;26.17;46.35;99259.23;1770392;81;21147;-74
2022/06/25 09:56:28;;;;;;;2.92;2.60;;;;;;;26.26;46.38;99258.70;1770333;80;21439;-74
2022/06/25 09:58:56;;;;;;;2.55;1.92;;;;;;;26.29;46.12;99259.23;1770235;81;21482;-75
2022/06/25 10:01:25;;;;;;;2.72;2.52;;;;;;;26.22;45.99;99256.04;1770415;80;21002;-75
2022/06/25 10:03:52;;;;;;;8.58;7.87;;;;;;;26.16;45.56;99268.23;1770147;81;21042;-75
2022/06/25 10:06:20;;;;;;;2.58;2.37;;;;;;;26.11;45.95;99263.06;1770283;81;21554;-74
2022/06/25 10:08:51;;;;;;;4.58;2.02;;;;;;;26.17;45.45;99264.56;1770152;80;20935;-75
2022/06/25 10:11:25;;;;;;;3.10;2.80;;;;;;;26.21;45.69;99265.87;1769836;80;20955;-74
2022/06/25 10:13:52;;;;;;;4.47;2.83;;;;;;;26.21;45.62;99269.03;1770230;80;21070;-75
2022/06/25 10:16:22;;;;;;;4.03;3.10;;;;;;;26.18;45.11;99262.73;1770193;81;20951;-73
2022/06/25 10:18:49;;;;;;;4.55;2.40;;;;;;;26.14;45.21;99262.73;1770105;80;21798;-74
2022/06/25 10:21:21;;;;;;;4.83;2.42;;;;;;;26.05;45.08;99264.05;1770152;80;21467;-76
2022/06/25 10:23:54;;;;;;;4.70;2.77;;;;;;;25.95;45.49;99262.57;1770371;81;21407;-75
2022/06/25 10:26:21;;;;;;;4.08;3.27;;;;;;;25.99;46.03;99261.22;1750991;81;20983;-74
2022/06/25 10:28:48;;;;;;;2.92;2.52;;;;;;;26.08;45.89;99267.72;1770146;81;20947;-74
2022/06/25 10:31:17;;;;;;;2.90;2.05;;;;;;;26.10;45.78;99266.22;1770165;81;21086;-75
2022/06/25 10:34:03;;;;;;;5.10;2.00;;;;;;;26.12;45.43;99256.73;1770135;81;21034;-75
2022/06/25 10:36:47;;;;;;;2.15;2.05;;;;;;;26.16;45.18;99256.73;1729965;83;21012;-74
2022/06/25 10:39:35;;;;;;;4.17;1.98;;;;;;;26.19;45.29;99255.04;1775038;80;21527;-73
2022/06/25 10:45:22;;;;;;;4.28;3.87;;;;;;;26.18;45.96;99254.73;1781630;79;21234;-74
2022/06/25 10:47:58;;;;;;;2.80;2.60;;;;;;;26.34;45.65;99254.23;1781478;80;20947;-73
2022/06/25 10:50:29;;;;;;;2.50;2.30;;;;;;;26.52;45.06;99251.37;1751371;81;21046;-75
2022/06/25 10:53:10;;;;;;;6.80;4.12;;;;;;;26.75;45.31;99247.47;1770255;80;21046;-74
2022/06/25 10:55:54;;;;;;;2.10;1.95;;;;;;;26.93;44.21;99260.07;1770508;81;20955;-75
2022/06/25 10:58:25;;;;;;;3.83;2.20;;;;;;;27.02;44.39;99251.54;1770219;80;21238;-75
2022/06/25 11:01:01;;;;;;;2.12;2.02;;;;;;;27.09;42.41;99260.53;1770325;80;21093;-74
2022/06/25 11:03:37;;;;;;;2.15;1.75;;;;;;;27.04;42.62;99255.70;1770149;81;20951;-75
2022/06/25 11:06:26;;;;;;;4.15;2.12;;;;;;;26.98;42.65;99264.89;1770561;81;21034;-74
2022/06/25 11:08:52;;;;;;;2.00;1.90;;;;;;;26.83;43.04;99261.26;1770228;81;21541;-74
2022/06/25 11:11:31;;;;;;;4.03;2.45;;;;;;;26.71;43.65;99252.81;1770189;81;21435;-74
2022/06/25 11:13:58;;;;;;;2.37;2.17;;;;;;;26.63;43.64;99256.32;1770120;81;20935;-74
2022/06/25 11:16:26;;;;;;;2.47;2.27;;;;;;;26.57;43.93;99261.53;1770160;80;20987;-74
2022/06/25 11:18:59;;;;;;;1.95;1.85;;;;;;;26.47;43.90;99260.88;1770146;81;20998;-74
2022/06/25 11:21:34;;;;;;;4.62;2.35;;;;;;;26.38;44.32;99256.04;1770278;80;21070;-74
2022/06/25 11:24:15;;;;;;;2.05;1.80;;;;;;;26.27;44.43;99262.54;1770472;81;21133;-74
2022/06/25 11:29:34;;;;;;;3.77;2.15;;;;;;;26.09;44.81;99261.89;1770549;81;21434;-76
2022/06/25 11:32:01;;;;;;;3.80;2.60;;;;;;;25.95;45.14;99258.58;1770144;80;20975;-78
2022/06/25 11:34:29;;;;;;;2.65;2.45;;;;;;;25.80;45.47;99254.88;1770219;80;20955;-75
2022/06/25 11:36:59;;;;;;;2.47;2.20;;;;;;;25.66;45.51;99257.71;1770118;81;21515;-75
2022/06/25 11:39:28;;;;;;;4.33;2.52;;;;;;;25.52;46.03;99248.52;1769980;80;21050;-75
2022/06/25 11:41:55;;;;;;;2.98;2.47;;;;;;;25.43;46.45;99247.31;1770134;80;21010;-75
2022/06/25 11:44:22;;;;;;;2.12;2.02;;;;;;;25.32;46.84;99250.64;1770567;80;20971;-74
2022/06/25 11:46:49;;;;;;;2.90;2.58;;;;;;;25.22;47.04;99245.11;1770563;81;20943;-75
2022/06/25 11:49:16;;;;;;;3.05;2.10;;;;;;;25.17;47.01;99244.78;1770522;80;21063;-74
2022/06/25 11:51:52;;;;;;;2.05;1.85;;;;;;;25.18;46.94;99242.45;1770076;81;21010;-75
2022/06/25 11:54:24;;;;;;;2.77;2.10;;;;;;;25.21;46.72;99236.78;1770528;80;20952;-74
2022/06/25 11:56:55;;;;;;;3.62;1.98;;;;;;;25.31;46.82;99238.82;1770380;80;20968;-75
2022/06/25 11:59:27;;;;;;;5.20;2.00;;;;;;;25.48;46.48;99233.02;1770792;81;20999;-73
2022/06/25 12:01:54;;;;;;;4.30;2.17;;;;;;;25.63;46.22;99230.07;1770467;80;21986;-74